sensor_id;sensor_type;location;lat;lon;timestamp;temperature;humidity
67364;HTU21D;54250;45.572;38.086;2023-08-20T00:00:19;24.93;47.02
67364;HTU21D;54250;45.572;38.086;2023-08-20T00:02:46;24.84;47.24
67364;HTU21D;54250;45.572;38.086;2023-08-20T00:05:13;24.72;47.54
67364;HTU21D;54250;45.572;38.086;2023-08-20T00:07:39;24.60;47.74
67364;HTU21D;54250;45.572;38.086;2023-08-20T00:10:06;24.53;48.06
67364;HTU21D;54250;45.572;38.086;2023-08-20T00:12:32;24.44;48.12
67364;HTU21D;54250;45.572;38.086;2023-08-20T00:15:02;24.35;48.40
67364;HTU21D;54250;45.572;38.086;2023-08-20T00:17:37;24.29;48.60
67364;HTU21D;54250;45.572;38.086;2023-08-20T00:20:05;24.23;48.78
67364;HTU21D;54250;45.572;38.086;2023-08-20T00:22:42;24.16;48.83
67364;HTU21D;54250;45.572;38.086;2023-08-20T00:25:11;24.12;48.95
67364;HTU21D;54250;45.572;38.086;2023-08-20T00:27:40;24.09;49.10
67364;HTU21D;54250;45.572;38.086;2023-08-20T00:30:07;24.01;49.27
67364;HTU21D;54250;45.572;38.086;2023-08-20T00:32:34;23.99;49.37
67364;HTU21D;54250;45.572;38.086;2023-08-20T00:35:00;23.97;49.46
67364;HTU21D;54250;45.572;38.086;2023-08-20T00:37:26;23.97;49.46
67364;HTU21D;54250;45.572;38.086;2023-08-20T00:39:52;23.97;49.47
67364;HTU21D;54250;45.572;38.086;2023-08-20T00:42:19;23.95;49.40
67364;HTU21D;54250;45.572;38.086;2023-08-20T00:44:45;23.97;49.35
67364;HTU21D;54250;45.572;38.086;2023-08-20T00:47:12;24.02;49.38
67364;HTU21D;54250;45.572;38.086;2023-08-20T00:49:39;23.99;49.50
67364;HTU21D;54250;45.572;38.086;2023-08-20T00:52:11;23.95;49.58
67364;HTU21D;54250;45.572;38.086;2023-08-20T00:54:39;23.92;49.66
67364;HTU21D;54250;45.572;38.086;2023-08-20T00:57:06;23.90;49.71
67364;HTU21D;54250;45.572;38.086;2023-08-20T00:59:34;23.84;49.76
67364;HTU21D;54250;45.572;38.086;2023-08-20T01:02:00;23.81;49.85
67364;HTU21D;54250;45.572;38.086;2023-08-20T01:04:28;23.79;49.89
67364;HTU21D;54250;45.572;38.086;2023-08-20T01:07:27;23.77;49.93
67364;HTU21D;54250;45.572;38.086;2023-08-20T01:13:08;23.74;50.04
67364;HTU21D;54250;45.572;38.086;2023-08-20T01:15:35;23.70;50.14
67364;HTU21D;54250;45.572;38.086;2023-08-20T01:18:02;23.65;50.15
67364;HTU21D;54250;45.572;38.086;2023-08-20T01:20:32;23.67;50.11
67364;HTU21D;54250;45.572;38.086;2023-08-20T01:30:51;23.50;50.62
67364;HTU21D;54250;45.572;38.086;2023-08-20T01:33:18;23.45;50.76
67364;HTU21D;54250;45.572;38.086;2023-08-20T01:35:45;23.40;50.91
67364;HTU21D;54250;45.572;38.086;2023-08-20T01:38:14;23.36;50.94
67364;HTU21D;54250;45.572;38.086;2023-08-20T01:40:41;23.32;50.94
67364;HTU21D;54250;45.572;38.086;2023-08-20T01:43:07;23.31;50.97
67364;HTU21D;54250;45.572;38.086;2023-08-20T01:45:32;23.27;51.06
67364;HTU21D;54250;45.572;38.086;2023-08-20T01:47:58;23.28;51.08
67364;HTU21D;54250;45.572;38.086;2023-08-20T01:50:24;23.28;51.00
67364;HTU21D;54250;45.572;38.086;2023-08-20T01:52:50;23.26;51.00
67364;HTU21D;54250;45.572;38.086;2023-08-20T01:55:16;23.25;51.04
67364;HTU21D;54250;45.572;38.086;2023-08-20T01:57:42;23.22;51.12
67364;HTU21D;54250;45.572;38.086;2023-08-20T02:00:09;23.11;51.38
67364;HTU21D;54250;45.572;38.086;2023-08-20T02:02:41;23.09;51.39
67364;HTU21D;54250;45.572;38.086;2023-08-20T02:05:07;23.05;51.49
67364;HTU21D;54250;45.572;38.086;2023-08-20T02:07:33;23.08;51.52
67364;HTU21D;54250;45.572;38.086;2023-08-20T02:09:59;23.07;51.50
67364;HTU21D;54250;45.572;38.086;2023-08-20T02:12:25;23.07;51.50
67364;HTU21D;54250;45.572;38.086;2023-08-20T02:14:53;23.01;51.73
67364;HTU21D;54250;45.572;38.086;2023-08-20T02:17:21;22.97;51.73
67364;HTU21D;54250;45.572;38.086;2023-08-20T02:19:49;22.93;51.90
67364;HTU21D;54250;45.572;38.086;2023-08-20T02:22:14;22.87;52.20
67364;HTU21D;54250;45.572;38.086;2023-08-20T02:24:40;22.85;52.40
67364;HTU21D;54250;45.572;38.086;2023-08-20T02:27:07;22.77;52.63
67364;HTU21D;54250;45.572;38.086;2023-08-20T02:29:33;22.71;52.69
67364;HTU21D;54250;45.572;38.086;2023-08-20T02:31:59;22.72;52.79
67364;HTU21D;54250;45.572;38.086;2023-08-20T02:34:25;22.71;52.88
67364;HTU21D;54250;45.572;38.086;2023-08-20T02:36:51;22.69;52.91
67364;HTU21D;54250;45.572;38.086;2023-08-20T02:39:17;22.62;52.98
67364;HTU21D;54250;45.572;38.086;2023-08-20T02:41:43;22.65;53.00
67364;HTU21D;54250;45.572;38.086;2023-08-20T02:44:09;22.67;52.97
67364;HTU21D;54250;45.572;38.086;2023-08-20T02:46:35;22.66;53.07
67364;HTU21D;54250;45.572;38.086;2023-08-20T02:49:01;22.73;52.96
67364;HTU21D;54250;45.572;38.086;2023-08-20T02:51:27;22.81;52.92
67364;HTU21D;54250;45.572;38.086;2023-08-20T02:53:53;22.88;52.85
67364;HTU21D;54250;45.572;38.086;2023-08-20T02:56:19;23.08;52.53
67364;HTU21D;54250;45.572;38.086;2023-08-20T02:58:45;23.38;52.03
67364;HTU21D;54250;45.572;38.086;2023-08-20T03:01:22;23.69;51.39
67364;HTU21D;54250;45.572;38.086;2023-08-20T03:03:49;24.02;50.75
67364;HTU21D;54250;45.572;38.086;2023-08-20T03:06:15;24.06;50.59
67364;HTU21D;54250;45.572;38.086;2023-08-20T03:08:41;24.05;50.63
67364;HTU21D;54250;45.572;38.086;2023-08-20T03:11:07;24.40;50.01
67364;HTU21D;54250;45.572;38.086;2023-08-20T03:13:34;24.84;49.17
67364;HTU21D;54250;45.572;38.086;2023-08-20T03:16:00;25.33;48.40
67364;HTU21D;54250;45.572;38.086;2023-08-20T03:18:26;25.71;47.69
67364;HTU21D;54250;45.572;38.086;2023-08-20T03:20:57;25.76;47.47
67364;HTU21D;54250;45.572;38.086;2023-08-20T03:23:24;25.76;47.54
67364;HTU21D;54250;45.572;38.086;2023-08-20T03:25:50;25.84;47.44
67364;HTU21D;54250;45.572;38.086;2023-08-20T03:28:18;25.60;47.61
67364;HTU21D;54250;45.572;38.086;2023-08-20T03:30:44;25.52;47.86
67364;HTU21D;54250;45.572;38.086;2023-08-20T03:33:14;25.49;47.86
67364;HTU21D;54250;45.572;38.086;2023-08-20T03:35:40;25.82;47.39
67364;HTU21D;54250;45.572;38.086;2023-08-20T03:38:06;26.12;46.89
67364;HTU21D;54250;45.572;38.086;2023-08-20T03:40:32;26.81;45.94
67364;HTU21D;54250;45.572;38.086;2023-08-20T03:42:58;27.69;44.42
67364;HTU21D;54250;45.572;38.086;2023-08-20T03:45:25;28.47;43.44
67364;HTU21D;54250;45.572;38.086;2023-08-20T03:47:51;29.09;41.98
67364;HTU21D;54250;45.572;38.086;2023-08-20T03:50:17;29.56;41.64
67364;HTU21D;54250;45.572;38.086;2023-08-20T03:52:44;29.87;41.16
67364;HTU21D;54250;45.572;38.086;2023-08-20T03:55:10;30.36;40.24
67364;HTU21D;54250;45.572;38.086;2023-08-20T03:57:36;30.68;39.93
67364;HTU21D;54250;45.572;38.086;2023-08-20T04:00:04;31.26;39.38
67364;HTU21D;54250;45.572;38.086;2023-08-20T04:02:40;32.01;37.89
67364;HTU21D;54250;45.572;38.086;2023-08-20T04:05:06;32.07;37.64
67364;HTU21D;54250;45.572;38.086;2023-08-20T04:07:32;32.33;37.22
67364;HTU21D;54250;45.572;38.086;2023-08-20T04:09:59;32.56;36.92
67364;HTU21D;54250;45.572;38.086;2023-08-20T04:12:24;32.76;36.63
67364;HTU21D;54250;45.572;38.086;2023-08-20T04:14:50;33.20;36.11
67364;HTU21D;54250;45.572;38.086;2023-08-20T04:17:16;33.37;35.63
67364;HTU21D;54250;45.572;38.086;2023-08-20T04:19:42;33.58;35.47
67364;HTU21D;54250;45.572;38.086;2023-08-20T04:22:08;34.03;35.11
67364;HTU21D;54250;45.572;38.086;2023-08-20T04:24:34;34.83;34.11
67364;HTU21D;54250;45.572;38.086;2023-08-20T04:26:59;35.33;33.39
67364;HTU21D;54250;45.572;38.086;2023-08-20T04:29:27;35.84;32.96
67364;HTU21D;54250;45.572;38.086;2023-08-20T04:31:53;36.34;32.28
67364;HTU21D;54250;45.572;38.086;2023-08-20T04:34:19;36.44;32.21
67364;HTU21D;54250;45.572;38.086;2023-08-20T04:36:50;36.81;31.57
67364;HTU21D;54250;45.572;38.086;2023-08-20T04:39:18;36.92;31.23
67364;HTU21D;54250;45.572;38.086;2023-08-20T04:41:48;37.18;30.93
67364;HTU21D;54250;45.572;38.086;2023-08-20T04:44:16;37.70;30.46
67364;HTU21D;54250;45.572;38.086;2023-08-20T04:46:43;38.00;29.99
67364;HTU21D;54250;45.572;38.086;2023-08-20T04:49:09;37.64;30.32
67364;HTU21D;54250;45.572;38.086;2023-08-20T04:51:37;38.24;29.85
67364;HTU21D;54250;45.572;38.086;2023-08-20T04:54:04;38.66;29.16
67364;HTU21D;54250;45.572;38.086;2023-08-20T04:56:30;38.51;29.02
67364;HTU21D;54250;45.572;38.086;2023-08-20T04:58:56;37.48;30.06
67364;HTU21D;54250;45.572;38.086;2023-08-20T05:01:42;35.30;33.04
67364;HTU21D;54250;45.572;38.086;2023-08-20T05:04:08;34.07;34.57
67364;HTU21D;54250;45.572;38.086;2023-08-20T05:06:34;33.77;35.06
67364;HTU21D;54250;45.572;38.086;2023-08-20T05:09:00;35.04;33.15
67364;HTU21D;54250;45.572;38.086;2023-08-20T05:11:26;35.56;32.48
67364;HTU21D;54250;45.572;38.086;2023-08-20T05:13:55;36.54;31.94
67364;HTU21D;54250;45.572;38.086;2023-08-20T05:16:21;38.33;29.67
67364;HTU21D;54250;45.572;38.086;2023-08-20T05:18:47;39.87;27.87
67364;HTU21D;54250;45.572;38.086;2023-08-20T05:21:13;40.72;26.98
67364;HTU21D;54250;45.572;38.086;2023-08-20T05:23:40;41.48;26.27
67364;HTU21D;54250;45.572;38.086;2023-08-20T05:26:07;42.00;25.72
67364;HTU21D;54250;45.572;38.086;2023-08-20T05:28:34;42.15;26.00
67364;HTU21D;54250;45.572;38.086;2023-08-20T05:31:00;43.14;25.23
67364;HTU21D;54250;45.572;38.086;2023-08-20T05:33:26;43.54;24.61
67364;HTU21D;54250;45.572;38.086;2023-08-20T05:35:54;43.43;24.24
67364;HTU21D;54250;45.572;38.086;2023-08-20T05:38:21;43.23;24.63
67364;HTU21D;54250;45.572;38.086;2023-08-20T05:40:48;43.92;24.31
67364;HTU21D;54250;45.572;38.086;2023-08-20T05:43:14;44.75;23.18
67364;HTU21D;54250;45.572;38.086;2023-08-20T05:45:41;45.93;22.46
67364;HTU21D;54250;45.572;38.086;2023-08-20T05:48:09;46.66;21.54
67364;HTU21D;54250;45.572;38.086;2023-08-20T05:50:35;47.40;20.94
67364;HTU21D;54250;45.572;38.086;2023-08-20T05:53:01;48.36;19.83
67364;HTU21D;54250;45.572;38.086;2023-08-20T05:55:28;48.22;20.22
67364;HTU21D;54250;45.572;38.086;2023-08-20T05:57:55;48.79;20.07
67364;HTU21D;54250;45.572;38.086;2023-08-20T06:00:21;48.68;19.15
67364;HTU21D;54250;45.572;38.086;2023-08-20T06:02:47;47.41;19.91
67364;HTU21D;54250;45.572;38.086;2023-08-20T06:05:13;47.17;19.66
67364;HTU21D;54250;45.572;38.086;2023-08-20T06:07:39;46.91;19.70
67364;HTU21D;54250;45.572;38.086;2023-08-20T06:10:06;47.03;19.50
67364;HTU21D;54250;45.572;38.086;2023-08-20T06:12:33;46.52;19.58
67364;HTU21D;54250;45.572;38.086;2023-08-20T06:14:59;46.82;19.29
67364;HTU21D;54250;45.572;38.086;2023-08-20T06:17:25;47.70;18.78
67364;HTU21D;54250;45.572;38.086;2023-08-20T06:19:51;47.55;18.55
67364;HTU21D;54250;45.572;38.086;2023-08-20T06:22:17;47.63;18.73
67364;HTU21D;54250;45.572;38.086;2023-08-20T06:24:43;47.48;18.38
67364;HTU21D;54250;45.572;38.086;2023-08-20T06:27:09;47.14;18.60
67364;HTU21D;54250;45.572;38.086;2023-08-20T06:29:35;48.07;18.25
67364;HTU21D;54250;45.572;38.086;2023-08-20T06:32:01;48.77;17.65
67364;HTU21D;54250;45.572;38.086;2023-08-20T06:34:27;49.00;17.77
67364;HTU21D;54250;45.572;38.086;2023-08-20T06:36:54;49.84;17.12
67364;HTU21D;54250;45.572;38.086;2023-08-20T06:39:20;50.05;17.09
67364;HTU21D;54250;45.572;38.086;2023-08-20T06:41:46;50.84;16.68
67364;HTU21D;54250;45.572;38.086;2023-08-20T06:44:19;51.36;15.90
67364;HTU21D;54250;45.572;38.086;2023-08-20T06:46:45;51.26;15.82
67364;HTU21D;54250;45.572;38.086;2023-08-20T06:49:11;51.41;15.64
67364;HTU21D;54250;45.572;38.086;2023-08-20T06:51:37;51.53;15.77
67364;HTU21D;54250;45.572;38.086;2023-08-20T06:54:04;51.63;15.63
67364;HTU21D;54250;45.572;38.086;2023-08-20T06:56:32;51.57;15.73
67364;HTU21D;54250;45.572;38.086;2023-08-20T06:58:58;51.71;15.50
67364;HTU21D;54250;45.572;38.086;2023-08-20T07:01:24;51.40;15.82
67364;HTU21D;54250;45.572;38.086;2023-08-20T07:03:50;50.75;15.54
67364;HTU21D;54250;45.572;38.086;2023-08-20T07:06:16;50.91;15.52
67364;HTU21D;54250;45.572;38.086;2023-08-20T07:08:44;51.31;15.30
67364;HTU21D;54250;45.572;38.086;2023-08-20T07:11:10;51.45;14.98
67364;HTU21D;54250;45.572;38.086;2023-08-20T07:13:37;51.93;14.57
67364;HTU21D;54250;45.572;38.086;2023-08-20T07:16:03;51.32;14.68
67364;HTU21D;54250;45.572;38.086;2023-08-20T07:18:29;50.79;14.84
67364;HTU21D;54250;45.572;38.086;2023-08-20T07:20:56;50.07;15.35
67364;HTU21D;54250;45.572;38.086;2023-08-20T07:23:22;49.74;15.48
67364;HTU21D;54250;45.572;38.086;2023-08-20T07:25:48;48.93;15.78
67364;HTU21D;54250;45.572;38.086;2023-08-20T07:28:17;48.44;16.09
67364;HTU21D;54250;45.572;38.086;2023-08-20T07:31:03;48.86;16.08
67364;HTU21D;54250;45.572;38.086;2023-08-20T07:33:29;49.73;16.09
67364;HTU21D;54250;45.572;38.086;2023-08-20T07:35:55;50.31;15.16
67364;HTU21D;54250;45.572;38.086;2023-08-20T07:38:21;50.28;15.21
67364;HTU21D;54250;45.572;38.086;2023-08-20T07:40:47;51.13;15.21
67364;HTU21D;54250;45.572;38.086;2023-08-20T07:43:14;51.80;14.72
67364;HTU21D;54250;45.572;38.086;2023-08-20T07:45:40;52.15;14.44
67364;HTU21D;54250;45.572;38.086;2023-08-20T07:48:06;52.25;14.39
67364;HTU21D;54250;45.572;38.086;2023-08-20T07:50:32;51.81;14.42
67364;HTU21D;54250;45.572;38.086;2023-08-20T07:52:58;51.70;14.61
67364;HTU21D;54250;45.572;38.086;2023-08-20T07:55:24;51.66;14.45
67364;HTU21D;54250;45.572;38.086;2023-08-20T07:57:49;52.14;14.61
67364;HTU21D;54250;45.572;38.086;2023-08-20T08:00:18;51.87;14.29
67364;HTU21D;54250;45.572;38.086;2023-08-20T08:02:44;51.39;14.25
67364;HTU21D;54250;45.572;38.086;2023-08-20T08:05:10;50.62;14.45
67364;HTU21D;54250;45.572;38.086;2023-08-20T08:07:36;49.94;14.23
67364;HTU21D;54250;45.572;38.086;2023-08-20T08:10:01;49.23;14.48
67364;HTU21D;54250;45.572;38.086;2023-08-20T08:12:27;48.86;14.96
67364;HTU21D;54250;45.572;38.086;2023-08-20T08:14:53;48.77;15.06
67364;HTU21D;54250;45.572;38.086;2023-08-20T08:17:19;49.21;15.04
67364;HTU21D;54250;45.572;38.086;2023-08-20T08:19:46;49.16;14.52
67364;HTU21D;54250;45.572;38.086;2023-08-20T08:22:12;49.20;14.87
67364;HTU21D;54250;45.572;38.086;2023-08-20T08:24:37;48.97;14.55
67364;HTU21D;54250;45.572;38.086;2023-08-20T08:27:03;49.20;14.41
67364;HTU21D;54250;45.572;38.086;2023-08-20T08:29:29;48.80;14.16
67364;HTU21D;54250;45.572;38.086;2023-08-20T08:31:55;48.16;14.33
67364;HTU21D;54250;45.572;38.086;2023-08-20T08:34:21;47.19;14.35
67364;HTU21D;54250;45.572;38.086;2023-08-20T08:36:47;46.72;14.58
67364;HTU21D;54250;45.572;38.086;2023-08-20T08:39:13;46.29;14.56
67364;HTU21D;54250;45.572;38.086;2023-08-20T08:41:41;46.00;14.46
67364;HTU21D;54250;45.572;38.086;2023-08-20T08:44:10;45.93;14.74
67364;HTU21D;54250;45.572;38.086;2023-08-20T08:46:38;45.83;14.77
67364;HTU21D;54250;45.572;38.086;2023-08-20T08:49:04;46.04;14.61
67364;HTU21D;54250;45.572;38.086;2023-08-20T08:51:31;46.15;14.42
67364;HTU21D;54250;45.572;38.086;2023-08-20T08:53:58;46.03;14.25
67364;HTU21D;54250;45.572;38.086;2023-08-20T08:56:24;45.76;14.52
67364;HTU21D;54250;45.572;38.086;2023-08-20T08:58:50;45.90;14.22
67364;HTU21D;54250;45.572;38.086;2023-08-20T09:01:16;45.74;14.42
67364;HTU21D;54250;45.572;38.086;2023-08-20T09:03:42;45.62;14.26
67364;HTU21D;54250;45.572;38.086;2023-08-20T09:06:09;45.16;14.58
67364;HTU21D;54250;45.572;38.086;2023-08-20T09:08:35;45.07;14.81
67364;HTU21D;54250;45.572;38.086;2023-08-20T09:11:02;45.20;14.73
67364;HTU21D;54250;45.572;38.086;2023-08-20T09:13:39;45.89;14.70
67364;HTU21D;54250;45.572;38.086;2023-08-20T09:16:06;45.31;14.61
67364;HTU21D;54250;45.572;38.086;2023-08-20T09:18:45;44.86;15.10
67364;HTU21D;54250;45.572;38.086;2023-08-20T09:21:12;45.01;15.39
67364;HTU21D;54250;45.572;38.086;2023-08-20T09:23:38;45.26;15.06
67364;HTU21D;54250;45.572;38.086;2023-08-20T09:26:06;44.58;14.90
67364;HTU21D;54250;45.572;38.086;2023-08-20T09:28:43;44.52;14.89
67364;HTU21D;54250;45.572;38.086;2023-08-20T09:31:11;44.80;14.99
67364;HTU21D;54250;45.572;38.086;2023-08-20T09:33:37;45.26;14.28
67364;HTU21D;54250;45.572;38.086;2023-08-20T09:36:13;44.95;14.37
67364;HTU21D;54250;45.572;38.086;2023-08-20T09:38:39;44.76;14.26
67364;HTU21D;54250;45.572;38.086;2023-08-20T09:41:08;44.56;14.28
67364;HTU21D;54250;45.572;38.086;2023-08-20T09:43:38;44.20;14.87
67364;HTU21D;54250;45.572;38.086;2023-08-20T09:46:05;43.53;14.98
67364;HTU21D;54250;45.572;38.086;2023-08-20T09:48:34;42.06;16.16
67364;HTU21D;54250;45.572;38.086;2023-08-20T09:51:10;40.72;16.94
67364;HTU21D;54250;45.572;38.086;2023-08-20T09:53:53;39.66;18.16
67364;HTU21D;54250;45.572;38.086;2023-08-20T09:56:29;39.24;18.22
67364;HTU21D;54250;45.572;38.086;2023-08-20T09:58:57;38.84;18.50
67364;HTU21D;54250;45.572;38.086;2023-08-20T10:01:25;38.61;19.20
67364;HTU21D;54250;45.572;38.086;2023-08-20T10:03:51;38.44;19.43
67364;HTU21D;54250;45.572;38.086;2023-08-20T10:06:18;38.23;19.75
67364;HTU21D;54250;45.572;38.086;2023-08-20T10:08:45;38.08;19.90
67364;HTU21D;54250;45.572;38.086;2023-08-20T10:11:12;37.96;20.28
67364;HTU21D;54250;45.572;38.086;2023-08-20T10:13:39;37.85;20.14
67364;HTU21D;54250;45.572;38.086;2023-08-20T10:16:05;37.69;20.34
67364;HTU21D;54250;45.572;38.086;2023-08-20T10:18:34;37.72;20.22
67364;HTU21D;54250;45.572;38.086;2023-08-20T10:21:01;37.70;20.67
67364;HTU21D;54250;45.572;38.086;2023-08-20T10:23:28;37.79;20.49
67364;HTU21D;54250;45.572;38.086;2023-08-20T10:25:54;37.78;20.34
67364;HTU21D;54250;45.572;38.086;2023-08-20T10:28:26;37.81;20.41
67364;HTU21D;54250;45.572;38.086;2023-08-20T10:31:12;37.74;20.27
67364;HTU21D;54250;45.572;38.086;2023-08-20T10:33:48;37.79;20.31
67364;HTU21D;54250;45.572;38.086;2023-08-20T10:36:20;37.75;19.95
67364;HTU21D;54250;45.572;38.086;2023-08-20T10:38:54;37.64;20.06
67364;HTU21D;54250;45.572;38.086;2023-08-20T10:41:30;37.69;20.20
67364;HTU21D;54250;45.572;38.086;2023-08-20T10:43:59;37.70;20.94
67364;HTU21D;54250;45.572;38.086;2023-08-20T10:46:28;37.73;20.56
67364;HTU21D;54250;45.572;38.086;2023-08-20T10:49:01;37.70;20.24
67364;HTU21D;54250;45.572;38.086;2023-08-20T10:51:29;37.62;20.55
67364;HTU21D;54250;45.572;38.086;2023-08-20T10:59:29;37.78;20.58
67364;HTU21D;54250;45.572;38.086;2023-08-20T11:01:57;37.77;20.45
67364;HTU21D;54250;45.572;38.086;2023-08-20T11:04:25;37.84;20.79
67364;HTU21D;54250;45.572;38.086;2023-08-20T11:06:58;37.91;20.59
67364;HTU21D;54250;45.572;38.086;2023-08-20T11:09:26;37.82;20.37
67364;HTU21D;54250;45.572;38.086;2023-08-20T11:11:52;37.76;20.34
67364;HTU21D;54250;45.572;38.086;2023-08-20T11:14:19;37.76;20.57
67364;HTU21D;54250;45.572;38.086;2023-08-20T11:16:46;37.75;20.44
67364;HTU21D;54250;45.572;38.086;2023-08-20T11:19:13;37.74;20.87
67364;HTU21D;54250;45.572;38.086;2023-08-20T11:21:41;37.77;21.03
67364;HTU21D;54250;45.572;38.086;2023-08-20T11:24:08;37.71;20.66
67364;HTU21D;54250;45.572;38.086;2023-08-20T11:26:36;37.64;20.42
67364;HTU21D;54250;45.572;38.086;2023-08-20T11:29:07;37.63;20.13
67364;HTU21D;54250;45.572;38.086;2023-08-20T11:31:35;37.64;20.41
67364;HTU21D;54250;45.572;38.086;2023-08-20T11:34:03;37.70;20.20
67364;HTU21D;54250;45.572;38.086;2023-08-20T11:36:32;37.65;20.64
67364;HTU21D;54250;45.572;38.086;2023-08-20T11:38:58;37.75;20.88
67364;HTU21D;54250;45.572;38.086;2023-08-20T11:41:24;37.77;20.75
67364;HTU21D;54250;45.572;38.086;2023-08-20T11:43:52;37.76;20.87
67364;HTU21D;54250;45.572;38.086;2023-08-20T11:46:20;37.79;20.76
67364;HTU21D;54250;45.572;38.086;2023-08-20T11:49:06;37.75;20.94
67364;HTU21D;54250;45.572;38.086;2023-08-20T11:51:36;37.80;20.92
67364;HTU21D;54250;45.572;38.086;2023-08-20T11:54:08;37.86;20.56
67364;HTU21D;54250;45.572;38.086;2023-08-20T11:56:34;37.78;20.41
67364;HTU21D;54250;45.572;38.086;2023-08-20T11:59:01;37.71;20.76
67364;HTU21D;54250;45.572;38.086;2023-08-20T12:01:31;37.76;20.70
67364;HTU21D;54250;45.572;38.086;2023-08-20T12:04:03;37.76;20.13
67364;HTU21D;54250;45.572;38.086;2023-08-20T12:06:29;37.69;20.14
67364;HTU21D;54250;45.572;38.086;2023-08-20T12:08:57;37.63;20.39
67364;HTU21D;54250;45.572;38.086;2023-08-20T12:11:27;37.60;20.42
67364;HTU21D;54250;45.572;38.086;2023-08-20T12:13:54;37.55;20.63
67364;HTU21D;54250;45.572;38.086;2023-08-20T12:16:24;37.56;21.03
67364;HTU21D;54250;45.572;38.086;2023-08-20T12:18:51;37.54;20.49
67364;HTU21D;54250;45.572;38.086;2023-08-20T12:21:18;37.49;20.08
67364;HTU21D;54250;45.572;38.086;2023-08-20T12:23:44;37.41;20.06
67364;HTU21D;54250;45.572;38.086;2023-08-20T12:26:11;37.33;20.32
67364;HTU21D;54250;45.572;38.086;2023-08-20T12:28:37;37.34;20.15
67364;HTU21D;54250;45.572;38.086;2023-08-20T12:31:03;37.30;20.21
67364;HTU21D;54250;45.572;38.086;2023-08-20T12:33:29;37.32;20.41
67364;HTU21D;54250;45.572;38.086;2023-08-20T12:35:55;37.34;20.92
67364;HTU21D;54250;45.572;38.086;2023-08-20T12:38:22;37.33;21.00
67364;HTU21D;54250;45.572;38.086;2023-08-20T12:40:48;37.32;20.80
67364;HTU21D;54250;45.572;38.086;2023-08-20T12:43:14;37.33;20.65
67364;HTU21D;54250;45.572;38.086;2023-08-20T12:45:40;37.29;20.89
67364;HTU21D;54250;45.572;38.086;2023-08-20T12:48:07;37.27;20.70
67364;HTU21D;54250;45.572;38.086;2023-08-20T12:50:35;37.25;20.80
67364;HTU21D;54250;45.572;38.086;2023-08-20T12:53:01;37.27;20.78
67364;HTU21D;54250;45.572;38.086;2023-08-20T12:55:27;37.22;20.54
67364;HTU21D;54250;45.572;38.086;2023-08-20T12:57:54;37.17;20.63
67364;HTU21D;54250;45.572;38.086;2023-08-20T13:00:24;37.15;20.70
67364;HTU21D;54250;45.572;38.086;2023-08-20T13:02:51;37.11;21.04
67364;HTU21D;54250;45.572;38.086;2023-08-20T13:05:18;37.05;21.31
67364;HTU21D;54250;45.572;38.086;2023-08-20T13:07:44;37.01;21.61
67364;HTU21D;54250;45.572;38.086;2023-08-20T13:10:11;37.05;22.00
67364;HTU21D;54250;45.572;38.086;2023-08-20T13:12:52;37.06;21.78
67364;HTU21D;54250;45.572;38.086;2023-08-20T13:15:22;37.03;21.99
67364;HTU21D;54250;45.572;38.086;2023-08-20T13:17:50;36.99;22.18
67364;HTU21D;54250;45.572;38.086;2023-08-20T13:20:16;36.92;22.39
67364;HTU21D;54250;45.572;38.086;2023-08-20T13:22:51;36.87;22.78
67364;HTU21D;54250;45.572;38.086;2023-08-20T13:25:18;36.85;22.54
67364;HTU21D;54250;45.572;38.086;2023-08-20T13:27:44;36.78;22.37
67364;HTU21D;54250;45.572;38.086;2023-08-20T13:30:10;36.73;22.54
67364;HTU21D;54250;45.572;38.086;2023-08-20T13:32:37;36.69;22.82
67364;HTU21D;54250;45.572;38.086;2023-08-20T13:35:03;36.63;22.55
67364;HTU21D;54250;45.572;38.086;2023-08-20T13:37:33;36.60;22.76
67364;HTU21D;54250;45.572;38.086;2023-08-20T13:39:59;36.58;22.92
67364;HTU21D;54250;45.572;38.086;2023-08-20T13:42:29;36.56;22.84
67364;HTU21D;54250;45.572;38.086;2023-08-20T13:44:55;36.51;22.98
67364;HTU21D;54250;45.572;38.086;2023-08-20T13:47:21;36.45;23.16
67364;HTU21D;54250;45.572;38.086;2023-08-20T13:49:47;36.39;23.53
67364;HTU21D;54250;45.572;38.086;2023-08-20T13:52:13;36.34;23.64
67364;HTU21D;54250;45.572;38.086;2023-08-20T13:54:39;36.32;23.66
67364;HTU21D;54250;45.572;38.086;2023-08-20T13:57:05;36.28;23.39
67364;HTU21D;54250;45.572;38.086;2023-08-20T13:59:31;36.22;23.24
67364;HTU21D;54250;45.572;38.086;2023-08-20T14:01:58;36.14;23.30
67364;HTU21D;54250;45.572;38.086;2023-08-20T14:04:24;36.08;23.41
67364;HTU21D;54250;45.572;38.086;2023-08-20T14:06:50;36.01;23.34
67364;HTU21D;54250;45.572;38.086;2023-08-20T14:09:16;35.98;23.28
67364;HTU21D;54250;45.572;38.086;2023-08-20T14:11:45;36.03;23.37
67364;HTU21D;54250;45.572;38.086;2023-08-20T14:14:11;35.98;23.17
67364;HTU21D;54250;45.572;38.086;2023-08-20T14:16:37;36.00;22.85
67364;HTU21D;54250;45.572;38.086;2023-08-20T14:19:03;35.97;22.93
67364;HTU21D;54250;45.572;38.086;2023-08-20T14:21:29;35.90;23.21
67364;HTU21D;54250;45.572;38.086;2023-08-20T14:23:55;35.82;23.50
67364;HTU21D;54250;45.572;38.086;2023-08-20T14:26:21;35.72;23.82
67364;HTU21D;54250;45.572;38.086;2023-08-20T14:28:47;35.65;23.98
67364;HTU21D;54250;45.572;38.086;2023-08-20T14:31:14;35.59;24.09
67364;HTU21D;54250;45.572;38.086;2023-08-20T14:33:40;35.50;24.35
67364;HTU21D;54250;45.572;38.086;2023-08-20T14:36:06;35.43;24.54
67364;HTU21D;54250;45.572;38.086;2023-08-20T14:38:32;35.35;24.53
67364;HTU21D;54250;45.572;38.086;2023-08-20T14:41:01;35.26;24.57
67364;HTU21D;54250;45.572;38.086;2023-08-20T14:43:28;35.20;24.72
67364;HTU21D;54250;45.572;38.086;2023-08-20T14:45:54;35.13;24.69
67364;HTU21D;54250;45.572;38.086;2023-08-20T14:48:24;35.06;24.95
67364;HTU21D;54250;45.572;38.086;2023-08-20T14:50:51;35.03;24.95
67364;HTU21D;54250;45.572;38.086;2023-08-20T14:53:17;34.98;25.04
67364;HTU21D;54250;45.572;38.086;2023-08-20T14:55:44;34.91;25.08
67364;HTU21D;54250;45.572;38.086;2023-08-20T14:58:10;34.84;25.41
67364;HTU21D;54250;45.572;38.086;2023-08-20T15:00:36;34.77;25.57
67364;HTU21D;54250;45.572;38.086;2023-08-20T15:03:03;34.68;25.75
67364;HTU21D;54250;45.572;38.086;2023-08-20T15:05:29;34.60;26.00
67364;HTU21D;54250;45.572;38.086;2023-08-20T15:07:56;34.51;25.97
67364;HTU21D;54250;45.572;38.086;2023-08-20T15:10:22;34.42;26.17
67364;HTU21D;54250;45.572;38.086;2023-08-20T15:12:48;34.30;26.31
67364;HTU21D;54250;45.572;38.086;2023-08-20T15:15:14;34.23;26.59
67364;HTU21D;54250;45.572;38.086;2023-08-20T15:17:40;34.07;26.93
67364;HTU21D;54250;45.572;38.086;2023-08-20T15:20:06;33.92;27.06